Terminal Aerodrome Forecast
Issued by NWS Portland, OR

Home | Current Version | Previous Version | Text Only | Print | Product List | Glossary On
Versions: 1 2 3 4 5 6 7 8 9 10 11 12 13 14 15 16 17
000
FTUS46 KPQR 231133
TAFEUG
TAF
KEUG 231133Z 2312/2412 19009KT P6SM -SHRA SCT025 OVC040
     FM231600 19012KT P6SM -RA SCT025 OVC040
     FM232200 18012G22KT P6SM -RA BKN025 OVC035
     FM240600 17014G25KT P6SM -RA SCT025 OVC040=

USA.gov is the U.S. government's official web portal to all federal, state and local government web resources and services.